Time;durP1;ratioP1;P1;durP2;ratioP2;P2;SDS_P1;SDS_P2;PMS_P1;PMS_P2;Temp;Humidity;BMP_temperature;BMP_pressure;BME280_temperature;BME280_humidity;BME280_pressure;Samples;Min_cycle;Max_cycle;Signal;HPM_P1;HPM_P2
2022/05/30 00:00:20;;;;;;;3.58;2.10;;;;;;;12.81;53.68;99414.69;4965489;28;20042;-82
2022/05/30 00:02:48;;;;;;;3.35;2.50;;;;;;;12.78;53.92;99407.84;4975967;28;20060;-82
2022/05/30 00:05:16;;;;;;;4.97;2.65;;;;;;;12.75;53.71;99408.19;4989351;28;20112;-82
2022/05/30 00:07:42;;;;;;;7.13;3.08;;;;;;;12.74;53.68;99401.16;4992657;28;20536;-79
2022/05/30 00:10:10;;;;;;;5.35;2.47;;;;;;;12.66;53.53;99408.31;4982418;28;20049;-79
2022/05/30 00:12:37;;;;;;;5.85;2.70;;;;;;;12.66;54.02;99405.63;4964027;28;20077;-79
2022/05/30 00:15:06;;;;;;;4.78;2.42;;;;;;;12.66;53.80;99406.47;4984308;28;20497;-79
2022/05/30 00:17:33;;;;;;;6.82;2.63;;;;;;;12.65;54.06;99410.13;5017820;28;20409;-80
2022/05/30 00:20:04;;;;;;;5.88;2.40;;;;;;;12.63;54.04;99400.63;4997765;28;20122;-80
2022/05/30 00:22:30;;;;;;;4.97;2.55;;;;;;;12.63;54.08;99401.47;4975158;28;20042;-80
2022/05/30 00:24:57;;;;;;;3.90;2.20;;;;;;;12.63;54.15;99403.31;4996520;28;20485;-79
2022/05/30 00:27:24;;;;;;;4.03;2.50;;;;;;;12.61;53.78;99400.78;4970854;28;20565;-80
2022/05/30 00:29:50;;;;;;;4.43;2.85;;;;;;;12.61;54.00;99403.44;5005813;28;20048;-79
2022/05/30 00:32:18;;;;;;;4.85;3.00;;;;;;;12.58;54.21;99396.63;4965895;28;20132;-80
2022/05/30 00:34:44;;;;;;;3.92;2.13;;;;;;;12.57;54.13;99397.63;4987242;28;20042;-82
2022/05/30 00:37:11;;;;;;;6.68;2.78;;;;;;;12.54;54.14;99395.28;5008340;28;20046;-83
2022/05/30 00:39:38;;;;;;;3.45;2.63;;;;;;;12.54;54.31;99389.09;5002449;28;20413;-82
2022/05/30 00:42:10;;;;;;;4.30;2.90;;;;;;;12.46;54.70;99389.06;4991346;28;20876;-81
2022/05/30 00:44:37;;;;;;;3.77;2.50;;;;;;;12.48;54.16;99393.22;4967968;28;20057;-82
2022/05/30 00:47:04;;;;;;;3.47;2.42;;;;;;;12.48;54.43;99395.91;4988543;28;20455;-80
2022/05/30 00:49:31;;;;;;;3.78;2.50;;;;;;;12.46;54.07;99386.41;4987409;28;20516;-79
2022/05/30 00:56:49;;;;;;;4.07;2.53;;;;;;;12.35;54.06;99380.34;4987930;28;20095;-80
2022/05/30 00:59:17;;;;;;;6.28;2.63;;;;;;;12.36;54.21;99376.72;4982644;28;20472;-82
2022/05/30 01:01:44;;;;;;;3.13;2.40;;;;;;;12.32;54.13;99378.00;4982868;28;20054;-81
2022/05/30 01:06:59;;;;;;;3.28;2.63;;;;;;;12.29;54.25;99370.34;4956783;28;20049;-83
2022/05/30 01:09:28;;;;;;;5.40;2.90;;;;;;;12.25;54.16;99374.31;4968809;28;20453;-82
2022/05/30 01:11:56;;;;;;;5.30;2.80;;;;;;;12.24;54.05;99369.16;5024698;28;20038;-83
2022/05/30 01:14:26;;;;;;;6.68;2.65;;;;;;;12.23;54.30;99368.31;5027600;28;20085;-80
2022/05/30 01:16:53;;;;;;;2.65;2.42;;;;;;;12.23;54.08;99364.81;5000963;28;20045;-80
2022/05/30 01:19:48;;;;;;;4.57;2.95;;;;;;;12.14;54.63;99363.94;5009811;28;20092;-80
2022/05/30 01:22:44;;;;;;;3.72;2.78;;;;;;;12.11;54.91;99366.91;4950574;28;20044;-79
2022/05/30 01:25:41;;;;;;;3.80;2.60;;;;;;;12.12;54.65;99368.59;4931346;28;20065;-80
2022/05/30 01:28:21;;;;;;;;;;;;;;;12.05;55.17;99364.88;4938959;28;20042;-79
2022/05/30 01:30:50;;;;;;;4.45;2.83;;;;;;;12.14;54.29;99367.44;4961480;28;19921;-80
2022/05/30 01:33:17;;;;;;;5.53;2.33;;;;;;;12.12;54.15;99366.75;4992066;28;20128;-80
2022/05/30 01:35:44;;;;;;;7.53;2.97;;;;;;;12.08;54.33;99364.56;4983141;28;20046;-80
2022/05/30 01:38:14;;;;;;;4.78;2.50;;;;;;;12.07;54.39;99363.72;5020854;28;20045;-80
2022/05/30 01:40:42;;;;;;;3.92;2.47;;;;;;;12.07;54.33;99368.22;4986615;28;20103;-80
2022/05/30 01:43:09;;;;;;;3.35;2.63;;;;;;;12.01;54.58;99358.19;4990783;28;20049;-79
2022/05/30 01:45:39;;;;;;;2.58;2.38;;;;;;;11.98;54.43;99372.63;4948522;28;20410;-80
2022/05/30 01:48:08;;;;;;;5.82;2.60;;;;;;;11.96;54.47;99361.34;4982971;28;20045;-80
2022/05/30 01:50:35;;;;;;;5.03;2.92;;;;;;;11.90;54.59;99357.44;4985373;28;20054;-79
2022/05/30 01:53:23;;;;;;;4.38;2.88;;;;;;;11.89;54.52;99362.94;4979969;28;20115;-80
2022/05/30 01:56:08;;;;;;;5.60;2.90;;;;;;;11.86;54.55;99358.78;4962839;28;20050;-80
2022/05/30 01:58:35;;;;;;;4.50;2.58;;;;;;;11.86;54.60;99357.91;5014221;28;20508;-79
2022/05/30 02:01:20;;;;;;;6.85;3.28;;;;;;;11.83;54.79;99355.53;4967860;28;20377;-80
2022/05/30 02:03:48;;;;;;;5.43;2.72;;;;;;;11.82;54.59;99357.38;5005859;28;20513;-79
2022/05/30 02:06:16;;;;;;;4.57;2.72;;;;;;;11.79;54.60;99348.88;4974428;28;20492;-79
2022/05/30 02:08:44;;;;;;;5.18;2.75;;;;;;;11.77;54.49;99343.69;4989956;28;20053;-80
2022/05/30 02:11:11;;;;;;;4.20;2.70;;;;;;;11.74;54.60;99349.34;5004926;28;20563;-79
2022/05/30 02:13:39;;;;;;;3.38;2.55;;;;;;;11.70;54.65;99345.31;5009676;28;20055;-79
2022/05/30 02:18:58;;;;;;;3.35;2.67;;;;;;;11.64;54.44;99337.97;4955405;28;20068;-83
2022/05/30 02:21:25;;;;;;;5.97;3.05;;;;;;;11.59;54.76;99342.91;4986095;28;20050;-81
2022/05/30 02:23:52;;;;;;;3.72;2.58;;;;;;;11.59;54.66;99343.72;4988589;28;20081;-83
2022/05/30 02:26:19;;;;;;;4.65;2.80;;;;;;;11.55;54.73;99329.09;4994207;28;20046;-83
2022/05/30 02:28:46;;;;;;;3.97;2.65;;;;;;;11.51;54.47;99333.03;4993032;28;20512;-82
2022/05/30 02:31:14;;;;;;;3.53;3.00;;;;;;;11.41;54.89;99335.78;5008516;28;20048;-83
2022/05/30 02:36:44;;;;;;;3.85;2.90;;;;;;;11.23;55.08;99335.78;4994669;28;20049;-82
2022/05/30 02:39:18;;;;;;;5.15;2.70;;;;;;;11.15;55.88;99333.06;4992698;28;20045;-82
2022/05/30 02:42:06;;;;;;;4.88;2.70;;;;;;;11.22;55.00;99326.16;4959839;28;21113;-83
2022/05/30 02:44:36;;;;;;;3.70;2.70;;;;;;;11.25;55.00;99333.81;5001292;28;20103;-83
2022/05/30 02:47:05;;;;;;;4.65;2.70;;;;;;;11.21;55.26;99334.28;4999833;28;20508;-83
2022/05/30 02:49:33;;;;;;;3.00;2.70;;;;;;;11.25;55.13;99341.78;4984877;28;20077;-83
2022/05/30 02:52:01;;;;;;;3.47;2.33;;;;;;;11.26;55.09;99334.66;5023804;28;20489;-82
2022/05/30 02:54:29;;;;;;;4.55;2.90;;;;;;;11.27;54.95;99331.84;5008271;28;20076;-81
2022/05/30 02:57:12;;;;;;;4.73;2.90;;;;;;;11.27;54.93;99334.50;5010170;28;20054;-82
2022/05/30 02:59:40;;;;;;;7.05;2.47;;;;;;;11.27;54.66;99333.66;4996055;28;20449;-82
2022/05/30 03:02:07;;;;;;;3.97;2.85;;;;;;;11.25;54.69;99325.84;4999842;28;20069;-83
2022/05/30 03:04:35;;;;;;;5.55;2.55;;;;;;;11.25;54.69;99330.34;4979181;28;20045;-79
2022/05/30 03:07:06;;;;;;;5.53;3.08;;;;;;;11.22;54.75;99330.63;4995995;28;20567;-78
2022/05/30 03:09:33;;;;;;;4.53;3.17;;;;;;;11.20;54.86;99329.97;4985917;28;20120;-79
2022/05/30 03:12:19;;;;;;;3.17;2.60;;;;;;;11.19;54.99;99337.06;4989950;28;20537;-78
2022/05/30 03:14:49;;;;;;;3.30;2.42;;;;;;;11.16;55.12;99332.06;4992109;28;20103;-78
2022/05/30 03:17:16;;;;;;;4.07;2.70;;;;;;;11.13;55.12;99340.34;4986194;28;20497;-79
2022/05/30 03:19:51;;;;;;;3.40;2.83;;;;;;;11.10;55.11;99345.97;5013958;28;20400;-78
2022/05/30 03:22:21;;;;;;;3.47;2.50;;;;;;;11.08;55.30;99342.63;5007262;28;20509;-78
2022/05/30 03:25:06;;;;;;;4.63;2.70;;;;;;;11.08;55.36;99342.63;4968153;28;20539;-78
2022/05/30 03:27:33;;;;;;;4.63;2.40;;;;;;;11.06;55.30;99342.75;4994937;28;20108;-79
2022/05/30 03:30:00;;;;;;;3.30;2.28;;;;;;;11.05;55.29;99343.75;4978589;28;20130;-79
2022/05/30 03:32:28;;;;;;;3.03;2.53;;;;;;;11.03;55.23;99340.41;4971373;28;20444;-81
2022/05/30 03:34:55;;;;;;;6.10;2.75;;;;;;;11.01;55.07;99346.84;5003580;28;20127;-82
2022/05/30 03:37:22;;;;;;;2.47;2.20;;;;;;;10.99;55.28;99355.00;5022287;28;20048;-83
2022/05/30 03:39:55;;;;;;;3.50;2.83;;;;;;;10.96;55.39;99357.94;4989893;28;20089;-83
2022/05/30 03:42:41;;;;;;;3.78;2.60;;;;;;;10.97;55.50;99354.31;4995875;28;20042;-82
2022/05/30 03:45:15;;;;;;;5.18;2.75;;;;;;;10.99;55.52;99373.59;5001619;28;20049;-81
2022/05/30 03:47:44;;;;;;;4.35;2.90;;;;;;;10.95;55.46;99364.25;4992558;28;20048;-81
2022/05/30 03:50:14;;;;;;;3.47;2.78;;;;;;;10.95;55.80;99377.53;5014959;28;20055;-81
2022/05/30 03:52:42;;;;;;;4.80;2.95;;;;;;;10.98;55.74;99368.41;4983676;28;20049;-81
2022/05/30 03:55:16;;;;;;;5.03;3.28;;;;;;;10.99;55.94;99372.72;4999388;28;20045;-81
2022/05/30 03:57:45;;;;;;;4.40;3.40;;;;;;;10.96;56.12;99373.88;4985497;28;20129;-81
2022/05/30 04:00:16;;;;;;;4.50;2.55;;;;;;;10.97;56.05;99383.53;4975994;28;20077;-82
2022/05/30 04:02:42;;;;;;;3.63;2.70;;;;;;;11.01;55.93;99384.06;4988015;28;20049;-80
2022/05/30 04:05:11;;;;;;;4.05;2.80;;;;;;;11.05;55.75;99380.94;4994324;28;20053;-79
2022/05/30 04:07:38;;;;;;;4.18;2.67;;;;;;;11.17;55.92;99386.91;4993759;28;20054;-81
2022/05/30 04:10:24;;;;;;;3.53;3.00;;;;;;;11.40;56.00;99392.59;4988936;28;20088;-82
2022/05/30 04:13:11;;;;;;;4.43;2.88;;;;;;;11.63;56.17;99395.63;4989356;28;20046;-81
2022/05/30 04:15:56;;;;;;;3.05;2.53;;;;;;;11.99;55.97;99392.94;4995268;28;20052;-82
2022/05/30 04:18:30;;;;;;;4.40;2.70;;;;;;;12.29;55.63;99394.31;4995991;28;20057;-82
2022/05/30 04:20:57;;;;;;;4.00;2.90;;;;;;;12.46;55.27;99391.72;5029353;28;20045;-82
2022/05/30 04:23:23;;;;;;;2.88;2.58;;;;;;;12.55;54.92;99390.78;4974741;28;20049;-82
2022/05/30 04:25:54;;;;;;;5.97;2.25;;;;;;;12.58;54.67;99399.28;4992092;28;20041;-82
2022/05/30 04:28:21;;;;;;;3.33;2.47;;;;;;;12.60;54.63;99389.31;4990531;28;20497;-82
2022/05/30 04:31:12;;;;;;;4.43;2.47;;;;;;;12.58;54.00;99395.78;4923535;28;20497;-82
2022/05/30 04:33:40;;;;;;;3.55;2.40;;;;;;;12.70;54.64;99401.69;4983935;28;20104;-83
2022/05/30 04:36:07;;;;;;;3.80;2.95;;;;;;;12.78;54.25;99402.53;4972345;28;20046;-83
2022/05/30 04:38:36;;;;;;;5.07;2.80;;;;;;;12.82;54.01;99409.22;4985245;28;20448;-83
2022/05/30 04:41:23;;;;;;;4.97;2.88;;;;;;;12.80;53.95;99407.72;4974531;28;20260;-83
2022/05/30 04:44:10;;;;;;;5.05;3.30;;;;;;;12.77;53.96;99408.00;4977569;28;20045;-80
2022/05/30 04:46:56;;;;;;;3.22;2.67;;;;;;;12.77;54.20;99410.66;4978095;28;20033;-80
2022/05/30 04:49:23;;;;;;;4.65;2.95;;;;;;;12.77;54.33;99414.19;4994442;28;20049;-80
2022/05/30 04:51:50;;;;;;;4.82;3.63;;;;;;;12.66;53.79;99416.28;5002271;28;20074;-80
2022/05/30 04:54:19;;;;;;;4.90;3.10;;;;;;;12.56;54.10;99414.56;5000737;28;20045;-82
2022/05/30 04:57:14;;;;;;;5.07;3.70;;;;;;;12.44;54.30;99426.53;4947866;28;20378;-83
2022/05/30 05:00:05;;;;;;;5.55;3.65;;;;;;;12.30;54.33;99427.09;4936795;28;20070;-80
2022/05/30 05:02:33;;;;;;;4.40;3.30;;;;;;;12.24;54.62;99430.38;4985856;28;20050;-80
2022/05/30 05:05:00;;;;;;;5.03;3.28;;;;;;;12.20;54.78;99437.00;5007256;28;20056;-80
2022/05/30 05:07:36;;;;;;;4.90;3.45;;;;;;;12.16;54.97;99441.78;4992550;28;20072;-81
2022/05/30 05:10:47;;;;;;;3.58;3.10;;;;;;;12.13;55.64;99440.25;4935136;28;20042;-80
2022/05/30 05:13:23;;;;;;;7.43;3.35;;;;;;;12.19;55.23;99438.84;4921691;28;20045;-80
2022/05/30 05:16:17;;;;;;;4.75;3.60;;;;;;;12.15;55.10;99446.28;4974898;28;20045;-80
2022/05/30 05:18:44;;;;;;;5.68;3.22;;;;;;;12.16;55.57;99441.78;5008657;28;20045;-80
2022/05/30 05:21:25;;;;;;;5.72;3.58;;;;;;;12.20;55.65;99442.31;5006850;28;20065;-80
2022/05/30 05:23:58;;;;;;;4.88;3.65;;;;;;;12.23;55.30;99439.34;4972871;28;20095;-79
2022/05/30 05:26:31;;;;;;;5.13;3.22;;;;;;;12.26;55.10;99441.69;4987445;28;20569;-82
2022/05/30 05:29:12;;;;;;;5.07;3.17;;;;;;;12.23;55.36;99444.66;4969114;28;20513;-82
2022/05/30 05:31:39;;;;;;;5.35;3.40;;;;;;;12.23;55.25;99442.84;4971829;28;20052;-82
2022/05/30 05:34:09;;;;;;;6.30;3.92;;;;;;;12.29;55.20;99444.91;5000468;28;20572;-82
2022/05/30 05:36:47;;;;;;;6.78;3.83;;;;;;;12.31;55.44;99444.72;5002595;28;20068;-82
2022/05/30 05:39:17;;;;;;;3.78;3.30;;;;;;;12.26;55.75;99442.56;4979471;28;20125;-81
2022/05/30 05:41:48;;;;;;;5.57;3.17;;;;;;;12.33;56.00;99442.75;4962743;28;20049;-82
2022/05/30 05:44:17;;;;;;;7.97;3.47;;;;;;;12.37;56.09;99441.44;4979195;28;20103;-82
2022/05/30 05:46:45;;;;;;;7.68;3.63;;;;;;;12.41;56.13;99440.13;4996233;28;20041;-80
2022/05/30 05:49:12;;;;;;;5.65;3.33;;;;;;;12.50;55.86;99441.03;4967028;28;20257;-80
2022/05/30 05:51:40;;;;;;;4.80;3.22;;;;;;;12.47;55.96;99444.00;4979462;28;20053;-79
2022/05/30 05:54:10;;;;;;;4.43;3.30;;;;;;;12.52;56.07;99447.88;4973144;28;20472;-83
2022/05/30 05:56:38;;;;;;;4.95;3.45;;;;;;;12.56;56.26;99443.88;5001462;28;20119;-83
2022/05/30 05:59:11;;;;;;;6.00;3.45;;;;;;;12.60;56.63;99447.91;4995215;28;20045;-83
2022/05/30 06:01:37;;;;;;;4.82;3.25;;;;;;;12.63;56.56;99448.59;4988267;28;20081;-83
2022/05/30 06:04:06;;;;;;;4.70;3.20;;;;;;;12.66;56.36;99446.44;4982627;28;20058;-82
2022/05/30 06:06:53;;;;;;;6.47;3.42;;;;;;;12.65;56.67;99439.44;4987734;28;20069;-83
2022/05/30 06:09:30;;;;;;;3.53;3.00;;;;;;;12.66;56.75;99446.44;4943071;28;20049;-83
2022/05/30 06:12:29;;;;;;;4.97;3.55;;;;;;;12.57;57.68;99444.72;5009143;28;20524;-80
2022/05/30 06:15:01;;;;;;;4.93;3.58;;;;;;;12.70;56.80;99442.47;4946984;28;20046;-80
2022/05/30 06:17:32;;;;;;;4.35;3.17;;;;;;;12.71;56.84;99444.13;4994895;28;20513;-80
2022/05/30 06:20:00;;;;;;;6.00;3.28;;;;;;;12.72;56.94;99451.13;4975010;28;20045;-80
2022/05/30 06:22:26;;;;;;;3.97;3.10;;;;;;;12.73;56.76;99443.97;5004175;28;20300;-81
2022/05/30 06:24:55;;;;;;;5.28;3.17;;;;;;;12.72;57.02;99448.47;5008119;28;20042;-80
2022/05/30 06:27:53;;;;;;;5.88;2.88;;;;;;;12.77;57.20;99454.16;4950523;28;20064;-80
2022/05/30 06:30:35;;;;;;;5.57;3.30;;;;;;;12.75;57.43;99452.66;4971573;28;20041;-80
2022/05/30 06:33:30;;;;;;;4.63;2.55;;;;;;;12.82;57.24;99454.50;4987060;28;20049;-80
2022/05/30 06:36:13;;;;;;;4.10;2.90;;;;;;;12.72;57.24;99452.94;4947971;28;20586;-80
2022/05/30 06:38:40;;;;;;;5.65;3.60;;;;;;;12.80;57.01;99458.34;4976944;28;20045;-80
2022/05/30 06:41:25;;;;;;;4.80;2.85;;;;;;;12.82;57.26;99453.66;4990204;28;20100;-83
2022/05/30 06:43:58;;;;;;;5.90;2.90;;;;;;;12.91;57.26;99463.38;4988737;28;20049;-83
2022/05/30 06:46:54;;;;;;;3.88;2.65;;;;;;;12.95;57.17;99458.53;4873387;28;20574;-83
2022/05/30 06:49:39;;;;;;;5.68;3.17;;;;;;;13.00;56.95;99457.09;4958066;28;20045;-83
2022/05/30 06:52:12;;;;;;;7.43;2.95;;;;;;;13.04;56.63;99455.75;5003889;28;20048;-83
2022/05/30 06:54:39;;;;;;;4.65;2.72;;;;;;;13.07;57.75;99456.44;4995154;28;20095;-82
2022/05/30 06:59:52;;;;;;;5.35;2.65;;;;;;;13.11;57.61;99460.47;4988000;28;20053;-82
2022/05/30 07:02:20;;;;;;;3.42;2.95;;;;;;;13.22;57.55;99460.97;4985581;28;20048;-82
2022/05/30 07:05:05;;;;;;;9.10;3.00;;;;;;;13.27;57.34;99460.53;4979291;28;20046;-82
2022/05/30 07:07:59;;;;;;;5.35;2.97;;;;;;;13.27;57.74;99462.38;4949164;28;20045;-82
2022/05/30 07:10:54;;;;;;;4.03;2.90;;;;;;;13.31;58.27;99458.41;4985643;28;20038;-82
2022/05/30 07:13:21;;;;;;;8.38;2.90;;;;;;;13.36;58.06;99456.91;4993904;28;20049;-80
2022/05/30 07:15:51;;;;;;;4.63;2.50;;;;;;;13.44;58.10;99456.91;5002519;28;20046;-82
2022/05/30 07:18:29;;;;;;;4.68;2.65;;;;;;;13.56;57.96;99464.59;4954904;28;20045;-82
2022/05/30 07:21:03;;;;;;;4.80;2.80;;;;;;;13.50;57.78;99462.59;4985613;28;20064;-82
2022/05/30 07:23:31;;;;;;;4.13;2.70;;;;;;;13.53;57.48;99460.41;4984539;28;20081;-82
2022/05/30 07:26:20;;;;;;;2.20;2.00;;;;;;;13.52;57.70;99457.94;4950764;28;20069;-82
2022/05/30 07:29:08;;;;;;;3.42;1.95;;;;;;;13.70;57.28;99457.78;5000840;28;20123;-81
2022/05/30 07:31:59;;;;;;;3.55;2.05;;;;;;;13.74;57.42;99459.13;4997795;28;20401;-80
2022/05/30 07:34:45;;;;;;;3.30;2.15;;;;;;;13.83;57.71;99461.63;4981382;28;20042;-82
2022/05/30 07:37:30;;;;;;;2.25;1.85;;;;;;;13.84;57.36;99457.97;4990960;28;20054;-83
2022/05/30 07:40:18;;;;;;;4.03;2.47;;;;;;;13.95;57.13;99451.47;4983849;28;20049;-81
2022/05/30 07:43:33;;;;;;;3.28;1.90;;;;;;;13.86;56.78;99449.78;4999740;28;20404;-80
2022/05/30 07:46:11;;;;;;;5.57;2.10;;;;;;;14.00;56.84;99448.31;4965120;28;20041;-80
2022/05/30 07:48:57;;;;;;;3.50;2.00;;;;;;;13.98;56.57;99450.31;4975733;28;20050;-80
2022/05/30 07:51:51;;;;;;;5.70;2.15;;;;;;;13.92;56.94;99446.47;4980780;28;20066;-80
2022/05/30 07:54:24;;;;;;;2.38;1.63;;;;;;;13.85;56.36;99437.47;5015084;28;20053;-83
2022/05/30 07:56:59;;;;;;;2.47;2.15;;;;;;;13.93;56.29;99442.78;5003553;28;20045;-82
2022/05/30 07:59:27;;;;;;;2.00;1.80;;;;;;;13.92;56.11;99449.13;4996169;28;20046;-83
2022/05/30 08:01:56;;;;;;;3.38;1.92;;;;;;;13.97;56.05;99444.13;5015817;28;20053;-82
2022/05/30 08:04:24;;;;;;;2.47;1.75;;;;;;;13.93;56.21;99448.13;4999734;28;20050;-80
2022/05/30 08:07:11;;;;;;;5.95;1.80;;;;;;;13.98;56.46;99445.78;4923763;28;20042;-81
2022/05/30 08:10:15;;;;;;;3.33;1.88;;;;;;;13.95;55.77;99447.97;4965684;28;20096;-82
2022/05/30 08:12:42;;;;;;;3.53;1.52;;;;;;;14.11;55.72;99448.78;5004703;28;20069;-82
2022/05/30 08:15:26;;;;;;;4.68;1.90;;;;;;;14.11;55.72;99453.28;4999974;28;20041;-83
2022/05/30 08:18:05;;;;;;;2.22;1.70;;;;;;;14.09;55.42;99450.81;4966039;28;20591;-83
2022/05/30 08:20:32;;;;;;;4.32;1.60;;;;;;;14.14;54.95;99447.59;5003458;28;20103;-83
2022/05/30 08:22:59;;;;;;;6.40;1.80;;;;;;;14.22;54.80;99449.44;5007876;28;20052;-83
2022/05/30 08:25:26;;;;;;;3.42;1.35;;;;;;;14.31;54.26;99448.44;4970604;28;20496;-83
2022/05/30 08:27:54;;;;;;;1.50;1.40;;;;;;;14.36;54.46;99439.91;4997822;28;20056;-82
2022/05/30 08:30:20;;;;;;;1.83;1.33;;;;;;;14.36;53.73;99443.41;4987448;28;20501;-82
2022/05/30 08:33:11;;;;;;;3.50;1.58;;;;;;;14.34;53.72;99438.22;4984945;28;20070;-82
2022/05/30 08:36:16;;;;;;;3.65;2.00;;;;;;;14.40;54.80;99442.09;4943204;28;20045;-82
2022/05/30 08:38:45;;;;;;;2.88;1.42;;;;;;;14.46;54.75;99440.56;4999446;28;20041;-82
2022/05/30 08:44:29;;;;;;;3.75;1.80;;;;;;;14.65;54.39;99439.38;4941096;28;20061;-82
2022/05/30 08:47:15;;;;;;;2.83;1.58;;;;;;;14.66;54.48;99444.56;5001863;28;20453;-82
2022/05/30 08:49:46;;;;;;;1.75;1.60;;;;;;;14.84;54.29;99438.16;5001742;28;20069;-82
2022/05/30 08:52:41;;;;;;;1.85;1.65;;;;;;;14.70;53.30;99439.69;4998778;28;20136;-82
2022/05/30 08:55:35;;;;;;;3.28;1.60;;;;;;;14.64;53.13;99443.06;4955574;28;20498;-82
2022/05/30 08:58:36;;;;;;;2.53;1.50;;;;;;;14.71;53.22;99446.72;4975583;28;20072;-83
2022/05/30 09:01:10;;;;;;;2.20;1.70;;;;;;;14.75;53.18;99438.16;4959841;28;20041;-83
2022/05/30 09:04:45;;;;;;;3.85;2.38;;;;;;;14.72;52.25;99437.69;4952663;28;20076;-84
2022/05/30 09:07:16;;;;;;;3.58;2.00;;;;;;;14.81;52.80;99428.63;4902797;28;20049;-80
2022/05/30 09:10:02;;;;;;;2.85;1.70;;;;;;;14.75;51.81;99434.66;4989619;28;20052;-80
2022/05/30 09:12:37;;;;;;;4.13;2.30;;;;;;;14.81;50.26;99430.47;4974928;28;20513;-80
2022/05/30 09:15:32;;;;;;;;;;;;;;;14.64;51.09;99432.38;4969881;28;20471;-84
2022/05/30 09:18:11;;;;;;;3.20;1.75;;;;;;;14.76;51.57;99429.16;4994668;28;20883;-84
2022/05/30 09:20:41;;;;;;;3.70;1.98;;;;;;;14.93;52.57;99424.59;4953715;28;20049;-83
2022/05/30 09:23:11;;;;;;;3.20;1.90;;;;;;;14.98;51.32;99424.03;4991358;28;20042;-84
2022/05/30 09:25:57;;;;;;;2.63;1.75;;;;;;;15.08;51.35;99421.97;4980126;28;20099;-84
2022/05/30 09:28:46;;;;;;;3.80;1.95;;;;;;;15.05;51.91;99417.00;4960416;28;20050;-83
2022/05/30 09:32:10;;;;;;;3.70;2.00;;;;;;;15.07;49.88;99423.00;4932202;28;20093;-83
2022/05/30 09:34:55;;;;;;;7.85;1.92;;;;;;;15.18;50.70;99419.09;4925636;28;20119;-83
2022/05/30 09:37:40;;;;;;;5.35;1.95;;;;;;;15.20;50.46;99419.75;4987580;28;20053;-81
2022/05/30 09:40:35;;;;;;;2.22;1.80;;;;;;;15.06;48.21;99424.03;4982275;28;20054;-81
2022/05/30 09:43:30;;;;;;;4.05;2.25;;;;;;;15.07;48.94;99423.00;4950189;28;20103;-81
2022/05/30 09:46:15;;;;;;;2.25;1.70;;;;;;;15.11;48.91;99418.97;4998452;28;20090;-81
2022/05/30 09:49:17;;;;;;;4.72;1.67;;;;;;;15.16;49.22;99419.28;4953589;28;20069;-80
2022/05/30 09:51:55;;;;;;;2.97;1.85;;;;;;;15.10;49.98;99416.47;4959919;28;20691;-81
2022/05/30 09:54:22;;;;;;;2.13;1.90;;;;;;;15.17;50.30;99420.13;4987236;28;20062;-82
2022/05/30 09:56:54;;;;;;;3.42;2.13;;;;;;;15.18;51.23;99424.44;5004766;28;20046;-82
2022/05/30 09:59:29;;;;;;;2.88;1.70;;;;;;;15.15;50.86;99427.47;4978038;28;20056;-79
2022/05/30 10:02:29;;;;;;;3.60;2.03;;;;;;;15.01;49.49;99430.88;5000695;28;20106;-78
2022/05/30 10:05:23;;;;;;;4.90;1.95;;;;;;;15.06;47.06;99429.38;4930849;28;20109;-78
2022/05/30 10:07:59;;;;;;;3.53;1.73;;;;;;;15.16;48.39;99426.47;4965834;28;20073;-82
2022/05/30 10:10:56;;;;;;;2.17;1.77;;;;;;;15.20;47.89;99425.94;4943596;28;20042;-82
2022/05/30 10:13:34;;;;;;;2.67;1.83;;;;;;;15.15;48.02;99425.63;4980849;28;20080;-82
2022/05/30 10:16:35;;;;;;;3.08;1.85;;;;;;;15.12;48.50;99427.84;4830905;29;20103;-82
2022/05/30 10:19:09;;;;;;;1.95;1.75;;;;;;;15.08;48.49;99430.00;4904112;28;20056;-82
2022/05/30 10:28:14;;;;;;;1.95;1.50;;;;;;;15.17;48.42;99425.47;5002958;28;20069;-82
2022/05/30 10:28:22;;;;;;;3.78;1.95;;;;;;;15.27;49.03;99433.28;4921617;28;20049;-81
2022/05/30 10:31:24;;;;;;;3.20;1.92;;;;;;;15.18;48.00;99432.47;4993683;28;20405;-81
2022/05/30 10:34:22;;;;;;;2.38;1.92;;;;;;;15.15;48.97;99432.81;4966549;28;20125;-82
2022/05/30 10:37:02;;;;;;;2.70;2.03;;;;;;;15.29;49.40;99433.91;4954394;28;20049;-81
2022/05/30 10:39:29;;;;;;;3.20;1.98;;;;;;;15.33;49.06;99438.75;4983395;28;20049;-81
2022/05/30 10:42:04;;;;;;;3.47;1.98;;;;;;;15.24;47.75;99436.28;5004704;28;20041;-81
2022/05/30 10:44:36;;;;;;;4.07;2.20;;;;;;;15.34;48.14;99439.56;4970304;28;20056;-82
2022/05/30 10:47:10;;;;;;;2.92;1.70;;;;;;;15.35;47.34;99444.75;4981283;28;20099;-81
2022/05/30 10:49:52;;;;;;;2.22;1.83;;;;;;;15.17;48.21;99433.50;5001846;28;20045;-81
2022/05/30 10:52:32;;;;;;;5.35;2.38;;;;;;;15.13;47.47;99440.19;4995201;28;20056;-81
2022/05/30 10:55:13;;;;;;;1.70;1.60;;;;;;;15.18;47.35;99440.50;4982141;28;20492;-82
2022/05/30 10:57:45;;;;;;;3.85;1.80;;;;;;;15.33;48.31;99438.75;4990523;28;20056;-81
2022/05/30 11:00:16;;;;;;;2.92;1.80;;;;;;;15.47;48.27;99430.97;5018902;28;20050;-81
2022/05/30 11:02:58;;;;;;;3.35;1.92;;;;;;;15.46;48.62;99434.66;4986267;28;20057;-82
2022/05/30 11:05:36;;;;;;;3.80;1.98;;;;;;;15.54;49.09;99437.28;4961877;28;20117;-82
2022/05/30 11:08:16;;;;;;;3.60;2.20;;;;;;;15.55;48.75;99433.59;4969174;28;20046;-81
2022/05/30 11:10:47;;;;;;;3.83;2.20;;;;;;;15.73;45.41;99436.84;5000000;28;20065;-82
2022/05/30 11:13:44;;;;;;;4.07;1.75;;;;;;;15.60;45.13;99436.56;4973253;28;20042;-82
2022/05/30 11:16:31;;;;;;;2.30;1.88;;;;;;;15.67;44.63;99434.00;4930877;28;20413;-81
2022/05/30 11:19:43;;;;;;;2.00;1.67;;;;;;;15.67;46.02;99436.69;4983617;28;20425;-82
2022/05/30 11:22:38;;;;;;;2.03;1.80;;;;;;;15.55;45.18;99439.78;4944217;28;20564;-81
2022/05/30 11:25:15;;;;;;;2.85;1.50;;;;;;;15.57;45.63;99435.09;5031800;28;20074;-81
2022/05/30 11:27:48;;;;;;;1.85;1.30;;;;;;;15.57;47.15;99442.25;4982643;28;20041;-81
2022/05/30 11:30:21;;;;;;;;;;;;;;;15.51;46.21;99441.13;4988246;28;20428;-82
2022/05/30 11:33:06;;;;;;;3.08;1.77;;;;;;;15.60;45.28;99442.75;5014327;28;19921;-80
2022/05/30 11:35:36;;;;;;;2.97;2.22;;;;;;;15.78;47.91;99441.66;4964227;28;20408;-82
2022/05/30 11:38:16;;;;;;;1.65;1.55;;;;;;;15.86;47.44;99446.94;5002394;28;20056;-82
2022/05/30 11:41:18;;;;;;;2.03;1.50;;;;;;;15.81;46.01;99444.81;5005842;28;20135;-82
2022/05/30 11:44:00;;;;;;;1.88;1.50;;;;;;;15.86;46.38;99446.94;4940896;28;20117;-82
2022/05/30 11:46:37;;;;;;;3.20;1.60;;;;;;;15.93;46.09;99449.75;4992033;28;20046;-81
2022/05/30 11:49:13;;;;;;;2.33;1.42;;;;;;;15.84;44.67;99446.28;4991121;28;20437;-81
2022/05/30 11:51:56;;;;;;;2.80;1.60;;;;;;;16.02;44.93;99444.13;4969271;28;20104;-81
2022/05/30 11:54:59;;;;;;;2.17;1.60;;;;;;;15.99;44.64;99449.84;4965854;28;20401;-81
2022/05/30 11:57:49;;;;;;;1.98;1.50;;;;;;;15.97;43.92;99443.84;4957975;28;20039;-81
2022/05/30 12:00:41;;;;;;;4.45;1.65;;;;;;;15.92;44.71;99450.75;4969382;28;20049;-81
2022/05/30 12:03:14;;;;;;;1.90;1.50;;;;;;;15.93;44.54;99450.59;4979918;28;20144;-81
2022/05/30 12:05:59;;;;;;;1.65;1.55;;;;;;;16.00;45.16;99448.00;4994367;28;20155;-81
2022/05/30 12:08:46;;;;;;;2.78;1.55;;;;;;;16.04;42.70;99439.44;4995775;28;20046;-81
2022/05/30 12:11:27;;;;;;;4.15;1.52;;;;;;;16.17;44.26;99443.34;4966528;28;20053;-81
2022/05/30 12:14:19;;;;;;;2.60;1.52;;;;;;;16.23;43.97;99447.97;4982691;28;20049;-82
2022/05/30 12:17:09;;;;;;;1.63;1.40;;;;;;;16.32;44.92;99441.53;4974191;28;20046;-81
2022/05/30 12:25:50;;;;;;;2.47;1.52;;;;;;;16.37;44.71;99441.81;4960024;28;20042;-81
2022/05/30 12:28:29;;;;;;;1.83;1.50;;;;;;;16.44;44.44;99445.44;5000863;28;20057;-80
2022/05/30 12:31:05;;;;;;;1.60;1.40;;;;;;;16.51;44.14;99442.81;5000897;28;20734;-81
2022/05/30 12:33:31;;;;;;;2.65;1.67;;;;;;;16.65;44.50;99447.38;4996141;28;20052;-81
2022/05/30 12:36:10;;;;;;;3.15;1.48;;;;;;;16.61;43.48;99448.78;5012853;28;20042;-81
2022/05/30 12:38:54;;;;;;;1.83;1.38;;;;;;;16.52;42.86;99441.00;4987172;28;20065;-80
2022/05/30 12:41:30;;;;;;;3.05;1.73;;;;;;;16.59;43.33;99447.25;5005016;28;20054;-80
2022/05/30 12:43:58;;;;;;;2.50;2.00;;;;;;;16.63;44.19;99444.03;4990740;28;20049;-81
2022/05/30 12:46:28;;;;;;;2.38;1.55;;;;;;;16.60;43.90;99448.94;5005190;28;20045;-81
2022/05/30 12:49:05;;;;;;;1.85;1.60;;;;;;;16.67;43.71;99449.88;4983739;28;20492;-81